createdAt,value
2023-04-10T00:01:10.730Z,2.00
2023-04-10T00:03:38.172Z,2.05
2023-04-10T00:06:05.720Z,2.00
2023-04-10T00:08:32.903Z,2.17
2023-04-10T00:11:00.065Z,1.90
2023-04-10T00:13:27.212Z,1.88
2023-04-10T00:15:54.375Z,1.85
2023-04-10T00:18:21.492Z,1.95
2023-04-10T00:20:48.611Z,2.20
2023-04-10T00:23:15.744Z,1.90
2023-04-10T00:25:42.906Z,2.20
2023-04-10T00:28:10.083Z,2.05
2023-04-10T00:30:37.251Z,2.30
2023-04-10T00:33:04.442Z,2.13
2023-04-10T00:35:31.641Z,2.42
2023-04-10T00:37:59.159Z,2.13
2023-04-10T00:40:26.538Z,2.33
2023-04-10T00:42:53.734Z,2.22
2023-04-10T00:45:21.066Z,2.00
2023-04-10T00:47:48.263Z,2.28
2023-04-10T00:50:15.436Z,2.10
2023-04-10T00:52:42.721Z,1.92
2023-04-10T00:55:10.395Z,1.90
2023-04-10T00:57:38.446Z,1.80
2023-04-10T01:00:05.787Z,2.13
2023-04-10T01:02:32.968Z,2.28
2023-04-10T01:05:00.451Z,2.05
2023-04-10T01:07:30.740Z,1.88
2023-04-10T01:10:04.822Z,2.00
2023-04-10T01:12:55.604Z,1.90
2023-04-10T01:15:27.635Z,1.80
2023-04-10T01:17:54.798Z,1.85
2023-04-10T01:20:21.945Z,2.15
2023-04-10T01:23:01.382Z,2.10
2023-04-10T01:25:38.428Z,1.70
2023-04-10T01:28:05.890Z,2.10
2023-04-10T01:30:33.557Z,2.03
2023-04-10T01:33:02.651Z,1.90
2023-04-10T01:35:31.352Z,1.90
2023-04-10T01:37:59.799Z,1.90
2023-04-10T01:40:27.689Z,1.90
2023-04-10T01:42:56.476Z,1.65
2023-04-10T01:45:29.279Z,1.98
2023-04-10T01:47:56.891Z,1.95
2023-04-10T01:50:24.478Z,1.75
2023-04-10T01:52:52.825Z,1.70
2023-04-10T01:55:21.136Z,1.92
2023-04-10T01:57:49.443Z,2.28
2023-04-10T02:00:17.058Z,1.95
2023-04-10T02:02:44.691Z,2.00
2023-04-10T02:05:12.142Z,1.98
2023-04-10T02:07:42.394Z,1.80
2023-04-10T02:10:28.061Z,1.80
2023-04-10T02:13:00.719Z,2.00
2023-04-10T02:15:28.825Z,1.90
2023-04-10T02:17:57.039Z,1.67
2023-04-10T02:20:25.309Z,1.83
2023-04-10T02:22:53.216Z,2.10
2023-04-10T02:25:20.466Z,2.05
2023-04-10T02:27:47.631Z,1.63
2023-04-10T02:30:14.834Z,2.22
2023-04-10T02:32:42.053Z,1.80
2023-04-10T02:35:09.487Z,2.03
2023-04-10T02:37:37.140Z,1.90
2023-04-10T02:40:05.428Z,2.00
2023-04-10T02:42:32.519Z,1.88
2023-04-10T02:44:59.665Z,1.77
2023-04-10T02:47:27.024Z,2.13
2023-04-10T02:49:54.245Z,1.65
2023-04-10T02:52:21.458Z,1.88
2023-04-10T02:54:48.613Z,1.83
2023-04-10T02:57:16.746Z,1.83
2023-04-10T02:59:44.581Z,1.95
2023-04-10T03:02:11.820Z,1.70
2023-04-10T03:04:39.134Z,1.70
2023-04-10T03:07:06.273Z,1.80
2023-04-10T03:09:33.368Z,1.95
2023-04-10T03:12:02.020Z,1.75
2023-04-10T03:14:29.200Z,1.85
2023-04-10T03:16:56.333Z,1.98
2023-04-10T03:19:23.409Z,1.60
2023-04-10T03:21:50.532Z,1.60
2023-04-10T03:24:17.656Z,1.90
2023-04-10T03:26:45.015Z,1.80
2023-04-10T03:29:12.210Z,2.10
2023-04-10T03:31:39.377Z,1.60
2023-04-10T03:34:06.551Z,1.88
2023-04-10T03:36:33.724Z,1.80
2023-04-10T03:39:00.899Z,1.50
2023-04-10T03:41:28.199Z,1.75
2023-04-10T03:43:55.567Z,1.80
2023-04-10T03:46:23.194Z,1.77
2023-04-10T03:48:51.229Z,1.80
2023-04-10T03:51:18.833Z,1.73
2023-04-10T03:53:46.129Z,1.60
2023-04-10T03:56:13.293Z,1.88
2023-04-10T03:58:40.485Z,1.95
2023-04-10T04:01:08.146Z,1.77
2023-04-10T04:03:35.387Z,1.70
2023-04-10T04:06:02.604Z,1.45
2023-04-10T04:08:29.752Z,1.90
2023-04-10T04:10:56.905Z,1.55
2023-04-10T04:13:23.984Z,1.55
2023-04-10T04:15:51.217Z,1.50
2023-04-10T04:18:18.318Z,1.70
2023-04-10T04:20:45.494Z,1.38
2023-04-10T04:23:12.709Z,1.70
2023-04-10T04:25:39.850Z,1.60
2023-04-10T04:28:07.027Z,1.55
2023-04-10T04:30:34.220Z,1.77
2023-04-10T04:33:01.428Z,1.60
2023-04-10T04:35:28.605Z,1.83
2023-04-10T04:37:55.672Z,1.25
2023-04-10T04:40:22.739Z,1.67
2023-04-10T04:42:49.863Z,1.73
2023-04-10T04:45:16.970Z,1.60
2023-04-10T04:47:44.187Z,1.58
2023-04-10T04:50:11.379Z,1.65
2023-04-10T04:52:38.527Z,1.50
2023-04-10T04:55:05.888Z,1.70
2023-04-10T04:57:33.010Z,1.35
2023-04-10T05:00:00.349Z,1.60
2023-04-10T05:02:27.606Z,1.70
2023-04-10T05:04:54.768Z,1.52
2023-04-10T05:07:21.873Z,1.70
2023-04-10T05:09:49.275Z,1.48
2023-04-10T05:12:16.402Z,1.70
2023-04-10T05:14:43.488Z,1.55
2023-04-10T05:17:10.684Z,1.73
2023-04-10T05:19:37.801Z,1.70
2023-04-10T05:22:04.930Z,1.70
2023-04-10T05:24:32.112Z,1.70
2023-04-10T05:26:59.198Z,1.60
2023-04-10T05:29:26.390Z,1.73
2023-04-10T05:31:53.596Z,1.70
2023-04-10T05:34:20.792Z,1.90
2023-04-10T05:36:47.897Z,1.58
2023-04-10T05:39:15.780Z,5.32
2023-04-10T05:41:42.941Z,1.80
2023-04-10T05:44:10.245Z,1.73
2023-04-10T05:46:37.531Z,1.85
2023-04-10T05:49:04.731Z,1.70
2023-04-10T05:51:32.003Z,1.70
2023-04-10T05:53:59.155Z,2.13
2023-04-10T05:56:26.347Z,1.85
2023-04-10T05:58:53.719Z,1.75
2023-04-10T06:01:21.005Z,2.15
2023-04-10T06:03:48.471Z,1.88
2023-04-10T06:06:15.832Z,2.58
2023-04-10T06:08:42.967Z,1.80
2023-04-10T06:11:10.608Z,2.00
2023-04-10T06:13:37.757Z,1.80
2023-04-10T06:16:05.501Z,2.00
2023-04-10T06:18:32.716Z,2.08
2023-04-10T06:21:01.963Z,2.00
2023-04-10T06:23:29.490Z,2.00
2023-04-10T06:25:56.875Z,2.08
2023-04-10T06:28:23.978Z,2.05
2023-04-10T06:30:51.145Z,2.20
2023-04-10T06:33:18.298Z,2.60
2023-04-10T06:35:45.562Z,2.00
2023-04-10T06:38:12.791Z,2.17
2023-04-10T06:40:39.954Z,2.53
2023-04-10T06:43:07.189Z,2.20
2023-04-10T06:45:34.337Z,1.85
2023-04-10T06:48:01.666Z,2.25
2023-04-10T06:50:29.069Z,1.80
2023-04-10T06:52:59.846Z,2.10
2023-04-10T06:55:28.129Z,2.05
2023-04-10T06:57:56.527Z,2.20
2023-04-10T07:00:23.982Z,2.35
2023-04-10T07:02:51.427Z,1.88
2023-04-10T07:05:18.729Z,2.13
2023-04-10T07:07:47.432Z,1.80
2023-04-10T07:10:14.590Z,1.88
2023-04-10T07:12:41.677Z,1.73
2023-04-10T07:15:09.092Z,1.73
2023-04-10T07:17:36.420Z,1.90
2023-04-10T07:20:03.782Z,2.58
2023-04-10T07:22:31.972Z,1.83
2023-04-10T07:24:59.387Z,1.98
2023-04-10T07:27:26.609Z,1.83
2023-04-10T07:29:55.412Z,1.88
2023-04-10T07:32:22.678Z,2.40
2023-04-10T07:34:50.359Z,1.42
2023-04-10T07:37:18.100Z,1.83
2023-04-10T07:39:45.656Z,1.67
2023-04-10T07:42:12.802Z,1.88
2023-04-10T07:44:39.954Z,1.50
2023-04-10T07:47:07.089Z,2.03
2023-04-10T07:49:34.318Z,1.98
2023-04-10T07:52:01.774Z,1.90
2023-04-10T07:54:28.959Z,1.70
2023-04-10T07:56:56.066Z,2.00
2023-04-10T07:59:23.229Z,1.88
2023-04-10T08:01:50.557Z,1.90
2023-04-10T08:04:18.122Z,1.92
2023-04-10T08:06:45.472Z,2.10
2023-04-10T08:09:12.606Z,1.70
2023-04-10T08:11:39.750Z,1.80
2023-04-10T08:14:07.205Z,1.67
2023-04-10T08:16:36.008Z,1.75
2023-04-10T08:19:06.458Z,1.92
2023-04-10T08:21:33.640Z,1.88
2023-04-10T08:24:03.386Z,1.92
2023-04-10T08:26:30.797Z,2.53
2023-04-10T08:28:58.949Z,2.33
2023-04-10T08:31:27.467Z,2.83
2023-04-10T08:33:55.280Z,2.10
2023-04-10T08:36:22.811Z,2.10
2023-04-10T08:38:49.971Z,2.05
2023-04-10T08:41:18.477Z,2.15
2023-04-10T08:43:46.355Z,1.80
2023-04-10T08:46:14.718Z,2.40
2023-04-10T08:48:53.507Z,1.92
2023-04-10T08:51:26.100Z,2.17
2023-04-10T08:53:56.851Z,1.73
2023-04-10T08:56:24.497Z,1.60
2023-04-10T08:58:52.542Z,1.60
2023-04-10T09:01:21.203Z,1.88
2023-04-10T09:03:48.922Z,2.00
2023-04-10T09:06:16.190Z,2.20
2023-04-10T09:08:43.317Z,1.90
2023-04-10T09:11:13.309Z,1.70
2023-04-10T09:13:44.914Z,2.13
2023-04-10T09:16:12.748Z,1.77
2023-04-10T09:18:47.448Z,1.85
2023-04-10T09:21:19.446Z,1.90
2023-04-10T09:23:47.329Z,1.70
2023-04-10T09:26:24.409Z,1.80
2023-04-10T09:29:04.648Z,1.58
2023-04-10T09:31:33.045Z,1.80
2023-04-10T09:34:13.918Z,1.85
2023-04-10T09:36:41.746Z,1.70
2023-04-10T09:39:10.129Z,1.90
2023-04-10T09:41:48.067Z,1.70
2023-04-10T09:44:19.561Z,1.60
2023-04-10T09:46:47.042Z,1.70
2023-04-10T09:49:14.391Z,1.90
2023-04-10T09:51:42.632Z,1.73
2023-04-10T09:54:09.937Z,1.70
2023-04-10T09:56:38.984Z,2.10
2023-04-10T09:59:07.004Z,1.70
2023-04-10T10:01:35.126Z,1.80
2023-04-10T10:04:05.749Z,2.15
2023-04-10T10:06:33.133Z,1.75
2023-04-10T10:09:04.467Z,1.88
2023-04-10T10:11:34.291Z,1.95
2023-04-10T10:14:03.689Z,1.83
2023-04-10T10:16:43.091Z,1.60
2023-04-10T10:19:13.983Z,1.67
2023-04-10T10:21:42.982Z,2.03
2023-04-10T10:24:10.570Z,1.67
2023-04-10T10:26:39.858Z,1.65
2023-04-10T10:29:13.404Z,1.80
2023-04-10T10:31:40.643Z,1.80
2023-04-10T10:34:09.690Z,1.70
2023-04-10T10:36:37.580Z,1.92
2023-04-10T10:39:14.217Z,1.58
2023-04-10T10:41:51.084Z,1.60
2023-04-10T10:44:30.740Z,1.60
2023-04-10T10:47:06.972Z,1.75
2023-04-10T10:49:53.541Z,1.88
2023-04-10T10:52:39.622Z,1.70
2023-04-10T10:55:26.108Z,1.33
2023-04-10T10:57:54.290Z,1.70
2023-04-10T11:00:22.347Z,1.70
2023-04-10T11:03:08.153Z,1.80
2023-04-10T11:05:55.422Z,2.00
2023-04-10T11:08:44.538Z,1.90
2023-04-10T11:11:11.759Z,1.60
2023-04-10T11:13:42.779Z,1.70
2023-04-10T11:16:10.874Z,1.67
2023-04-10T11:18:56.123Z,1.73
2023-04-10T11:21:34.187Z,1.80
2023-04-10T11:24:01.281Z,1.75
2023-04-10T11:26:39.213Z,2.10
2023-04-10T11:29:18.105Z,1.65
2023-04-10T11:31:45.952Z,1.63
2023-04-10T11:34:13.500Z,1.73
2023-04-10T11:36:41.886Z,1.85
2023-04-10T11:39:20.079Z,1.80
2023-04-10T11:41:48.048Z,1.77
2023-04-10T11:44:16.887Z,1.92
2023-04-10T11:46:47.433Z,1.75
2023-04-10T11:49:21.691Z,1.63
2023-04-10T11:51:49.607Z,1.40
2023-04-10T11:54:21.135Z,1.95
2023-04-10T11:57:04.785Z,1.70
2023-04-10T11:59:32.746Z,1.77
2023-04-10T12:02:07.587Z,1.70
2023-04-10T12:04:35.240Z,1.83
2023-04-10T12:07:02.944Z,1.75
2023-04-10T12:09:30.544Z,1.90
2023-04-10T12:11:59.705Z,1.80
2023-04-10T12:14:32.143Z,2.15
2023-04-10T12:16:59.797Z,2.05
2023-04-10T12:19:27.155Z,2.05
2023-04-10T12:21:54.606Z,2.20
2023-04-10T12:24:40.519Z,2.72
2023-04-10T12:27:07.678Z,2.72
2023-04-10T12:29:36.113Z,2.90
2023-04-10T12:32:10.322Z,3.00
2023-04-10T12:34:37.694Z,3.28
2023-04-10T12:37:04.869Z,3.47
2023-04-10T12:39:32.017Z,3.58
2023-04-10T12:42:15.503Z,3.33
2023-04-10T12:44:52.041Z,3.28
2023-04-10T12:47:19.159Z,3.28
2023-04-10T12:50:05.196Z,3.78
2023-04-10T12:52:32.610Z,3.70
2023-04-10T12:55:11.279Z,4.00
2023-04-10T12:57:38.432Z,3.00
2023-04-10T13:00:06.461Z,3.80
2023-04-10T13:02:33.715Z,3.38
2023-04-10T13:05:02.008Z,3.38
2023-04-10T13:07:29.771Z,2.85
2023-04-10T13:09:56.953Z,3.95
2023-04-10T13:12:25.685Z,3.15
2023-04-10T13:14:56.208Z,3.40
2023-04-10T13:17:26.538Z,3.20
2023-04-10T13:19:54.277Z,2.97
2023-04-10T13:22:21.705Z,3.00
2023-04-10T13:24:48.904Z,2.60
2023-04-10T13:27:16.166Z,2.50
2023-04-10T13:29:43.941Z,2.47
2023-04-10T13:32:11.261Z,2.80
2023-04-10T13:34:38.373Z,2.28
2023-04-10T13:37:05.630Z,2.97
2023-04-10T13:39:32.907Z,3.03
2023-04-10T13:42:02.015Z,2.50
2023-04-10T13:44:29.212Z,2.90
2023-04-10T13:46:58.053Z,2.55
2023-04-10T13:51:52.717Z,2.28
2023-04-10T13:54:20.128Z,2.72
2023-04-10T13:56:48.124Z,2.30
2023-04-10T13:59:15.490Z,2.38
2023-04-10T14:01:42.700Z,2.60
2023-04-10T14:04:09.803Z,2.20
2023-04-10T14:06:37.255Z,2.40
2023-04-10T14:09:04.368Z,2.28
2023-04-10T14:11:31.460Z,2.22
2023-04-10T14:13:58.716Z,2.67
2023-04-10T14:16:25.869Z,2.45
2023-04-10T14:18:53.326Z,2.40
2023-04-10T14:21:20.845Z,2.30
2023-04-10T14:23:48.433Z,2.40
2023-04-10T14:26:15.748Z,2.63
2023-04-10T14:28:42.855Z,2.50
2023-04-10T14:31:10.217Z,2.30
2023-04-10T14:33:37.380Z,2.53
2023-04-10T14:36:04.642Z,2.20
2023-04-10T14:38:31.971Z,2.42
2023-04-10T14:40:59.201Z,2.40
2023-04-10T14:43:26.372Z,2.28
2023-04-10T14:45:53.508Z,2.20
2023-04-10T14:48:21.294Z,2.30
2023-04-10T14:50:49.559Z,2.25
2023-04-10T14:53:16.911Z,2.30
2023-04-10T14:55:44.116Z,2.13
2023-04-10T14:58:11.281Z,2.03
2023-04-10T15:00:38.456Z,2.20
2023-04-10T15:03:06.532Z,2.22
2023-04-10T15:05:33.958Z,2.30
2023-04-10T15:08:01.288Z,2.20
2023-04-10T15:10:31.484Z,2.28
2023-04-10T15:12:58.618Z,1.92
2023-04-10T15:15:25.748Z,2.45
2023-04-10T15:17:52.947Z,2.08
2023-04-10T15:20:20.300Z,2.15
2023-04-10T15:22:48.341Z,2.20
2023-04-10T15:25:15.598Z,2.20
2023-04-10T15:27:42.777Z,2.17
2023-04-10T15:30:10.125Z,2.13
2023-04-10T15:32:38.198Z,2.50
2023-04-10T15:35:05.798Z,2.33
2023-04-10T15:37:35.311Z,2.42
2023-04-10T15:40:03.864Z,2.60
2023-04-10T15:42:31.166Z,2.28
2023-04-10T15:44:58.343Z,2.70
2023-04-10T15:47:25.690Z,2.50
2023-04-10T15:49:52.950Z,2.40
2023-04-10T15:52:20.479Z,2.17
2023-04-10T15:54:47.574Z,2.95
2023-04-10T15:57:15.312Z,2.40
2023-04-10T15:59:42.413Z,2.38
2023-04-10T16:02:09.713Z,2.33
2023-04-10T16:04:37.391Z,1.98
2023-04-10T16:07:04.547Z,2.30
2023-04-10T16:09:31.682Z,2.15
2023-04-10T16:11:58.850Z,2.20
2023-04-10T16:14:26.189Z,2.33
2023-04-10T16:16:53.377Z,1.80
2023-04-10T16:19:21.072Z,1.67
2023-04-10T16:21:48.328Z,2.10
2023-04-10T16:24:15.565Z,1.83
2023-04-10T16:26:42.795Z,2.10
2023-04-10T16:29:09.977Z,2.15
2023-04-10T16:31:37.252Z,2.30
2023-04-10T16:34:04.470Z,2.20
2023-04-10T16:36:31.730Z,2.33
2023-04-10T16:38:58.880Z,2.42
2023-04-10T16:41:26.316Z,1.95
2023-04-10T16:43:53.412Z,1.70
2023-04-10T16:46:21.012Z,2.20
2023-04-10T16:48:48.327Z,1.95
2023-04-10T16:51:16.540Z,2.40
2023-04-10T16:53:43.766Z,1.85
2023-04-10T16:56:11.051Z,1.80
2023-04-10T16:58:38.594Z,1.73
2023-04-10T17:01:19.225Z,1.90
2023-04-10T17:03:47.523Z,1.90
2023-04-10T17:06:15.945Z,2.15
2023-04-10T17:08:43.370Z,2.05
2023-04-10T17:11:12.567Z,2.67
2023-04-10T17:13:40.748Z,1.90
2023-04-10T17:16:08.373Z,2.00
2023-04-10T17:18:35.666Z,2.00
2023-04-10T17:21:02.945Z,1.70
2023-04-10T17:23:30.418Z,1.85
2023-04-10T17:25:57.553Z,1.73
2023-04-10T17:28:24.671Z,1.90
2023-04-10T17:30:51.820Z,2.00
2023-04-10T17:33:19.221Z,1.95
2023-04-10T17:35:46.443Z,1.60
2023-04-10T17:38:13.597Z,2.22
2023-04-10T17:40:41.146Z,2.08
2023-04-10T17:43:08.493Z,2.10
2023-04-10T17:45:39.509Z,2.05
2023-04-10T17:48:07.145Z,1.50
2023-04-10T17:50:34.506Z,2.10
2023-04-10T17:53:01.777Z,1.73
2023-04-10T17:55:28.948Z,1.50
2023-04-10T17:57:57.840Z,1.67
2023-04-10T18:00:25.528Z,1.90
2023-04-10T18:02:58.057Z,1.73
2023-04-10T18:05:25.537Z,1.77
2023-04-10T18:07:52.647Z,1.80
2023-04-10T18:10:19.872Z,1.73
2023-04-10T18:12:47.040Z,1.55
2023-04-10T18:15:17.373Z,1.90
2023-04-10T18:17:44.511Z,1.73
2023-04-10T18:20:11.822Z,1.40
2023-04-10T18:22:38.967Z,1.70
2023-04-10T18:25:06.549Z,1.58
2023-04-10T18:27:35.868Z,1.80
2023-04-10T18:30:03.382Z,1.73
2023-04-10T18:32:30.733Z,1.63
2023-04-10T18:34:57.957Z,1.73
2023-04-10T18:37:25.534Z,1.60
2023-04-10T18:39:54.249Z,1.50
2023-04-10T18:42:22.722Z,1.35
2023-04-10T18:44:49.883Z,1.50
2023-04-10T18:47:17.117Z,1.30
2023-04-10T18:49:44.327Z,1.58
2023-04-10T18:52:11.548Z,1.90
2023-04-10T18:54:38.982Z,1.40
2023-04-10T18:57:10.004Z,1.60
2023-04-10T18:59:38.317Z,1.55
2023-04-10T19:02:05.666Z,1.30
2023-04-10T19:04:33.061Z,1.60
2023-04-10T19:07:00.592Z,1.52
2023-04-10T19:09:27.948Z,1.77
2023-04-10T19:11:55.136Z,1.50
2023-04-10T19:14:22.278Z,1.67
2023-04-10T19:16:49.553Z,1.50
2023-04-10T19:19:16.972Z,1.38
2023-04-10T19:21:44.212Z,1.50
2023-04-10T19:24:11.382Z,1.40
2023-04-10T19:26:38.611Z,1.50
2023-04-10T19:29:05.941Z,1.55
2023-04-10T19:31:33.121Z,1.13
2023-04-10T19:34:02.564Z,1.60
2023-04-10T19:36:29.740Z,1.30
2023-04-10T19:38:57.541Z,1.40
2023-04-10T19:41:25.031Z,1.30
2023-04-10T19:43:54.032Z,1.20
2023-04-10T19:46:21.761Z,1.17
2023-04-10T19:48:49.445Z,1.40
2023-04-10T19:51:16.565Z,1.50
2023-04-10T19:53:44.020Z,1.40
2023-04-10T19:56:11.334Z,1.50
2023-04-10T19:58:40.680Z,1.10
2023-04-10T20:01:09.055Z,1.42
2023-04-10T20:03:37.736Z,1.27
2023-04-10T20:06:07.478Z,1.20
2023-04-10T20:08:35.589Z,1.20
2023-04-10T20:11:06.825Z,1.02
2023-04-10T20:13:34.873Z,1.38
2023-04-10T20:16:02.366Z,1.35
2023-04-10T20:18:32.180Z,1.42
2023-04-10T20:21:01.653Z,1.30
2023-04-10T20:23:28.816Z,1.10
2023-04-10T20:25:55.968Z,1.10
2023-04-10T20:28:23.123Z,1.02
2023-04-10T20:30:50.464Z,1.40
2023-04-10T20:33:17.602Z,1.30
2023-04-10T20:35:44.721Z,1.55
2023-04-10T20:38:11.928Z,1.08
2023-04-10T20:40:39.105Z,1.10
2023-04-10T20:43:11.004Z,1.10
2023-04-10T20:45:39.034Z,1.33
2023-04-10T20:48:06.464Z,1.40
2023-04-10T20:50:33.791Z,1.30
2023-04-10T20:53:00.936Z,1.33
2023-04-10T20:55:28.036Z,1.80
2023-04-10T20:57:55.321Z,1.30
2023-04-10T21:00:22.499Z,1.00
2023-04-10T21:02:49.852Z,1.42
2023-04-10T21:05:17.121Z,1.10
2023-04-10T21:07:45.898Z,1.15
2023-04-10T21:10:13.017Z,1.20
2023-04-10T21:12:40.559Z,1.27
2023-04-10T21:15:08.087Z,1.10
2023-04-10T21:17:35.321Z,1.23
2023-04-10T21:20:02.604Z,1.05
2023-04-10T21:22:29.741Z,1.10
2023-04-10T21:24:56.853Z,1.20
2023-04-10T21:27:24.000Z,1.10
2023-04-10T21:29:51.117Z,1.23
2023-04-10T21:32:18.284Z,1.10
2023-04-10T21:34:45.591Z,1.10
2023-04-10T21:37:12.830Z,1.48
2023-04-10T21:39:41.323Z,1.00
2023-04-10T21:42:08.654Z,1.15
2023-04-10T21:44:35.740Z,1.10
2023-04-10T21:47:02.913Z,1.25
2023-04-10T21:49:30.235Z,1.23
2023-04-10T21:51:59.129Z,1.20
2023-04-10T21:54:26.232Z,1.30
2023-04-10T21:56:53.453Z,1.08
2023-04-10T21:59:20.615Z,1.10
2023-04-10T22:01:47.887Z,1.17
2023-04-10T22:04:15.642Z,1.30
2023-04-10T22:06:42.932Z,1.30
2023-04-10T22:09:10.204Z,1.40
2023-04-10T22:11:39.240Z,1.20
2023-04-10T22:14:15.401Z,1.10
2023-04-10T22:16:44.643Z,1.10
2023-04-10T22:19:11.838Z,1.40
2023-04-10T22:21:38.951Z,1.20
2023-04-10T22:24:06.445Z,0.90
2023-04-10T22:26:34.466Z,1.27
2023-04-10T22:29:01.541Z,1.10
2023-04-10T22:31:28.769Z,0.98
2023-04-10T22:33:56.136Z,1.15
2023-04-10T22:36:23.628Z,1.08
2023-04-10T22:38:50.775Z,1.08
2023-04-10T22:41:17.872Z,1.10
2023-04-10T22:43:45.065Z,1.17
2023-04-10T22:46:12.231Z,1.48
2023-04-10T22:48:39.539Z,1.20
2023-04-10T22:51:11.330Z,1.30
2023-04-10T22:53:38.797Z,1.10
2023-04-10T22:56:09.505Z,1.08
2023-04-10T22:58:39.407Z,1.15
2023-04-10T23:01:10.271Z,1.35
2023-04-10T23:03:37.449Z,0.95
2023-04-10T23:06:04.730Z,0.90
2023-04-10T23:08:31.855Z,1.13
2023-04-10T23:10:59.042Z,1.60
2023-04-10T23:13:26.334Z,0.93
2023-04-10T23:15:54.205Z,1.30
2023-04-10T23:18:23.036Z,1.23
2023-04-10T23:20:51.088Z,1.45
2023-04-10T23:23:18.486Z,0.98
2023-04-10T23:25:45.706Z,1.23
2023-04-10T23:28:12.901Z,1.13
2023-04-10T23:30:42.092Z,1.20
2023-04-10T23:33:09.525Z,1.40
2023-04-10T23:35:36.744Z,1.13
2023-04-10T23:38:03.913Z,1.00
2023-04-10T23:40:31.002Z,1.10
2023-04-10T23:42:58.162Z,1.08
2023-04-10T23:45:25.269Z,1.10
2023-04-10T23:47:52.854Z,1.20
2023-04-10T23:50:20.108Z,1.15
2023-04-10T23:52:50.628Z,1.05
2023-04-10T23:55:18.531Z,1.20
2023-04-10T23:57:45.685Z,1.10
